Time,TemperatureF,DewpointF,PressureIn,WindDirection,WindDirectionDegrees,WindSpeedMPH,WindSpeedGustMPH,Humidity,HourlyPrecipIn,Conditions,Clouds,dailyrainin,SoftwareType,DateUTC
2013-04-17 00:05:00,68.2,17.2,29.80,SW,225,5.8,-999.0,14,-99.99,,,0.00,Acu-Link.com,2013-04-17 06:05:00,
2013-04-17 00:20:00,67.1,16.3,29.80,SW,225,2.2,-999.0,14,-99.99,,,0.00,Acu-Link.com,2013-04-17 06:20:00,
2013-04-17 00:35:00,65.7,16.8,29.80,SSE,157,1.1,-999.0,15,-99.99,,,0.00,Acu-Link.com,2013-04-17 06:35:00,
2013-04-17 00:51:00,64.9,17.6,29.80,East,90,1.1,-999.0,16,-99.99,,,0.00,Acu-Link.com,2013-04-17 06:51:00,
2013-04-17 01:06:00,62.8,17.4,29.80,NW,315,0.0,-999.0,17,-99.99,,,0.00,Acu-Link.com,2013-04-17 07:06:00,
2013-04-17 01:36:00,60.3,19.1,29.80,ESE,112,0.0,-999.0,20,-99.99,,,0.00,Acu-Link.com,2013-04-17 07:36:00,
2013-04-17 01:51:00,58.6,19.9,29.80,West,270,0.0,-999.0,22,-99.99,,,0.00,Acu-Link.com,2013-04-17 07:51:00,
2013-04-17 02:06:00,58.6,20.9,29.80,South,180,2.7,-999.0,23,-99.99,,,0.00,Acu-Link.com,2013-04-17 08:06:00,
2013-04-17 02:21:00,57.2,20.7,29.80,West,270,0.0,-999.0,24,-99.99,,,0.00,Acu-Link.com,2013-04-17 08:21:00,
2013-04-17 02:37:00,55.2,21.8,29.80,SSW,202,0.0,-999.0,27,-99.99,,,0.00,Acu-Link.com,2013-04-17 08:37:00,
2013-04-17 02:52:00,53.8,20.6,29.79,East,90,0.0,-999.0,27,-99.99,,,0.00,Acu-Link.com,2013-04-17 08:52:00,
2013-04-17 03:07:00,53.6,21.3,29.79,East,90,0.0,-999.0,28,-99.99,,,0.00,Acu-Link.com,2013-04-17 09:07:00,
2013-04-17 03:22:00,52.7,20.5,29.79,NW,315,0.0,-999.0,28,-99.99,,,0.00,Acu-Link.com,2013-04-17 09:22:00,
2013-04-17 03:37:00,52.5,22.0,29.79,South,180,0.0,-999.0,30,-99.99,,,0.00,Acu-Link.com,2013-04-17 09:37:00,
2013-04-17 03:52:00,53.4,22.0,29.79,ESE,112,0.0,-999.0,29,-99.99,,,0.00,Acu-Link.com,2013-04-17 09:52:00,
2013-04-17 04:07:00,54.5,21.2,29.78,ENE,67,1.1,-999.0,27,-99.99,,,0.00,Acu-Link.com,2013-04-17 10:07:00,
2013-04-17 04:22:00,54.3,21.9,29.79,ESE,112,2.7,-999.0,28,-99.99,,,0.00,Acu-Link.com,2013-04-17 10:22:00,
2013-04-17 04:37:00,53.1,21.7,29.78,ENE,67,1.7,-999.0,29,-99.99,,,0.00,Acu-Link.com,2013-04-17 10:37:00,
2013-04-17 04:53:00,53.6,21.3,29.79,ESE,112,1.7,-999.0,28,-99.99,,,0.00,Acu-Link.com,2013-04-17 10:53:00,
2013-04-17 05:08:00,54.7,22.2,29.79,East,90,2.2,-999.0,28,-99.99,,,0.00,Acu-Link.com,2013-04-17 11:08:00,
2013-04-17 05:23:00,53.6,22.9,29.79,SE,135,0.0,-999.0,30,-99.99,,,0.00,Acu-Link.com,2013-04-17 11:23:00,
2013-04-17 05:38:00,52.0,23.1,29.80,SSW,202,0.0,-999.0,32,-99.99,,,0.00,Acu-Link.com,2013-04-17 11:38:00,
2013-04-17 05:53:00,50.7,22.7,29.79,NNE,22,0.0,-999.0,33,-99.99,,,0.00,Acu-Link.com,2013-04-17 11:53:00,
2013-04-17 06:08:00,50.4,22.4,29.80,North,0,2.2,-999.0,33,-99.99,,,0.00,Acu-Link.com,2013-04-17 12:08:00,
2013-04-17 06:23:00,50.0,23.4,29.80,SE,135,0.0,-999.0,35,-99.99,,,0.00,Acu-Link.com,2013-04-17 12:23:00,
2013-04-17 06:38:00,50.5,23.9,29.79,SE,135,2.7,-999.0,35,-99.99,,,0.00,Acu-Link.com,2013-04-17 12:38:00,
2013-04-17 06:53:00,51.3,23.9,29.80,NNW,337,3.7,-999.0,34,-99.99,,,0.00,Acu-Link.com,2013-04-17 12:53:00,
2013-04-17 07:09:00,51.4,24.7,29.82,NW,315,2.7,-999.0,35,-99.99,,,0.00,Acu-Link.com,2013-04-17 13:09:00,
2013-04-17 07:24:00,56.7,25.6,29.81,SSE,157,0.0,-999.0,30,-99.99,,,0.00,Acu-Link.com,2013-04-17 13:24:00,
2013-04-17 07:39:00,61.9,26.6,29.82,ENE,67,1.7,-999.0,26,-99.99,,,0.00,Acu-Link.com,2013-04-17 13:39:00,
2013-04-17 07:54:00,67.3,27.2,29.82,NNW,337,1.1,-999.0,22,-99.99,,,0.00,Acu-Link.com,2013-04-17 13:54:00,
2013-04-17 08:09:00,69.3,28.8,29.82,NE,45,0.0,-999.0,22,-99.99,,,0.00,Acu-Link.com,2013-04-17 14:09:00,
2013-04-17 08:24:00,74.3,30.6,29.82,SSE,157,2.2,-999.0,20,-99.99,,,0.00,Acu-Link.com,2013-04-17 14:24:00,
2013-04-17 08:39:00,74.3,30.6,29.82,SW,225,0.0,-999.0,20,-99.99,,,0.00,Acu-Link.com,2013-04-17 14:39:00,
2013-04-17 08:54:00,69.4,31.0,29.82,South,180,2.2,-999.0,24,-99.99,,,0.00,Acu-Link.com,2013-04-17 14:54:00,
2013-04-17 09:10:00,70.3,30.7,29.81,WNW,292,7.3,-999.0,23,-99.99,,,0.00,Acu-Link.com,2013-04-17 15:10:00,
2013-04-17 09:25:00,72.3,31.3,29.81,SW,225,4.2,-999.0,22,-99.99,,,0.00,Acu-Link.com,2013-04-17 15:25:00,
2013-04-17 09:40:00,72.7,30.5,29.80,South,180,2.7,-999.0,21,-99.99,,,0.00,Acu-Link.com,2013-04-17 15:40:00,
2013-04-17 09:55:00,73.4,28.6,29.80,South,180,6.8,-999.0,19,-99.99,,,0.00,Acu-Link.com,2013-04-17 15:55:00,
2013-04-17 10:10:00,74.5,29.5,29.79,WSW,247,7.3,-999.0,19,-99.99,,,0.00,Acu-Link.com,2013-04-17 16:10:00,
2013-04-17 10:25:00,75.0,27.2,29.79,SW,225,4.7,-999.0,17,-99.99,,,0.00,Acu-Link.com,2013-04-17 16:25:00,
2013-04-17 10:40:00,77.2,27.5,29.79,SW,225,5.8,-999.0,16,-99.99,,,0.00,Acu-Link.com,2013-04-17 16:40:00,
2013-04-17 10:56:00,77.4,26.1,29.78,South,180,10.9,-999.0,15,-99.99,,,0.00,Acu-Link.com,2013-04-17 16:56:00,
2013-04-17 11:11:00,78.3,23.4,29.78,West,270,4.7,-999.0,13,-99.99,,,0.00,Acu-Link.com,2013-04-17 17:11:00,
2013-04-17 11:26:00,77.7,22.9,29.77,South,180,10.9,-999.0,13,-99.99,,,0.00,Acu-Link.com,2013-04-17 17:26:00,
2013-04-17 11:56:00,79.9,24.7,29.75,West,270,13.5,-999.0,13,-99.99,,,0.00,Acu-Link.com,2013-04-17 17:56:00,
2013-04-17 12:11:00,80.4,23.1,29.74,SW,225,13.0,-999.0,12,-99.99,,,0.00,Acu-Link.com,2013-04-17 18:11:00,
2013-04-17 12:26:00,82.0,22.3,29.73,West,270,9.9,-999.0,11,-99.99,,,0.00,Acu-Link.com,2013-04-17 18:26:00,
2013-04-17 12:41:00,82.0,20.1,29.72,South,180,16.1,-999.0,10,-99.99,,,0.00,Acu-Link.com,2013-04-17 18:41:00,
2013-04-17 12:56:00,82.6,20.5,29.71,SW,225,13.0,-999.0,10,-99.99,,,0.00,Acu-Link.com,2013-04-17 18:56:00,
2013-04-17 13:12:00,83.5,21.2,29.70,SW,225,11.4,-999.0,10,-99.99,,,0.00,Acu-Link.com,2013-04-17 19:12:00,
2013-04-17 13:27:00,82.9,18.3,29.70,WSW,247,14.0,-999.0,9,-99.99,,,0.00,Acu-Link.com,2013-04-17 19:27:00,
2013-04-17 13:42:00,82.8,18.2,29.69,WNW,292,11.4,-999.0,9,-99.99,,,0.00,Acu-Link.com,2013-04-17 19:42:00,
2013-04-17 13:57:00,82.4,17.9,29.69,West,270,10.4,-999.0,9,-99.99,,,0.00,Acu-Link.com,2013-04-17 19:57:00,
2013-04-17 14:12:00,82.0,17.6,29.69,WSW,247,14.5,-999.0,9,-99.99,,,0.00,Acu-Link.com,2013-04-17 20:12:00,
2013-04-17 14:27:00,82.6,20.5,29.68,SW,225,10.4,-999.0,10,-99.99,,,0.00,Acu-Link.com,2013-04-17 20:27:00,
2013-04-17 14:42:00,83.3,23.3,29.67,SW,225,12.5,-999.0,11,-99.99,,,0.00,Acu-Link.com,2013-04-17 20:42:00,
2013-04-17 14:57:00,82.8,22.9,29.67,WSW,247,11.4,-999.0,11,-99.99,,,0.00,Acu-Link.com,2013-04-17 20:57:00,
2013-04-17 15:12:00,82.9,20.7,29.67,WNW,292,8.9,-999.0,10,-99.99,,,0.00,Acu-Link.com,2013-04-17 21:12:00,
2013-04-17 15:28:00,83.5,23.5,29.67,WNW,292,11.4,-999.0,11,-99.99,,,0.00,Acu-Link.com,2013-04-17 21:28:00,
2013-04-17 15:43:00,82.8,22.9,29.67,SW,225,15.0,-999.0,11,-99.99,,,0.00,Acu-Link.com,2013-04-17 21:43:00,
2013-04-17 15:58:00,82.0,24.4,29.67,WSW,247,17.1,-999.0,12,-99.99,,,0.00,Acu-Link.com,2013-04-17 21:58:00,
2013-04-17 16:13:00,81.1,23.7,29.67,NW,315,24.3,-999.0,12,-99.99,,,0.00,Acu-Link.com,2013-04-17 22:13:00,
2013-04-17 16:28:00,80.1,26.6,29.67,WNW,292,9.9,-999.0,14,-99.99,,,0.00,Acu-Link.com,2013-04-17 22:28:00,
2013-04-17 16:43:00,80.4,26.8,29.66,WSW,247,6.8,-999.0,14,-99.99,,,0.00,Acu-Link.com,2013-04-17 22:43:00,
2013-04-17 16:58:00,80.2,28.4,29.66,West,270,10.9,-999.0,15,-99.99,,,0.00,Acu-Link.com,2013-04-17 22:58:00,
2013-04-17 17:13:00,78.8,27.2,29.67,WNW,292,14.0,-999.0,15,-99.99,,,0.01,Acu-Link.com,2013-04-17 23:13:00,
2013-04-17 17:28:00,77.0,27.4,29.68,West,270,9.9,-999.0,16,-99.99,,,0.01,Acu-Link.com,2013-04-17 23:28:00,
2013-04-17 17:44:00,76.3,26.8,29.69,NW,315,7.3,-999.0,16,-99.99,,,0.01,Acu-Link.com,2013-04-17 23:44:00,
2013-04-17 17:59:00,75.2,25.9,29.70,West,270,13.0,-999.0,16,-99.99,,,0.01,Acu-Link.com,2013-04-17 23:59:00,
2013-04-17 18:14:00,74.5,26.8,29.71,WNW,292,17.1,-999.0,17,-99.99,,,0.01,Acu-Link.com,2013-04-18 00:14:00,
2013-04-17 18:29:00,73.4,25.9,29.72,West,270,9.9,-999.0,17,-99.99,,,0.01,Acu-Link.com,2013-04-18 00:29:00,
2013-04-17 18:44:00,71.1,25.4,29.74,West,270,7.3,-999.0,18,-99.99,,,0.01,Acu-Link.com,2013-04-18 00:44:00,
2013-04-17 18:59:00,69.1,25.1,29.75,SSE,157,7.3,-999.0,19,-99.99,,,0.01,Acu-Link.com,2013-04-18 00:59:00,
2013-04-17 19:14:00,67.3,24.9,29.76,NNW,337,11.9,-999.0,20,-99.99,,,0.01,Acu-Link.com,2013-04-18 01:14:00,
2013-04-17 19:29:00,65.7,23.5,29.78,SW,225,9.4,-999.0,20,-99.99,,,0.01,Acu-Link.com,2013-04-18 01:29:00,
2013-04-17 19:45:00,64.6,22.6,29.79,NW,315,10.4,-999.0,20,-99.99,,,0.01,Acu-Link.com,2013-04-18 01:45:00,
2013-04-17 20:00:00,63.3,20.4,29.81,SE,135,7.8,-999.0,19,-99.99,,,0.01,Acu-Link.com,2013-04-18 02:00:00,
2013-04-17 20:15:00,62.4,19.6,29.82,North,0,15.0,-999.0,19,-99.99,,,0.01,Acu-Link.com,2013-04-18 02:15:00,
2013-04-17 20:30:00,61.5,17.6,29.83,NW,315,8.9,-999.0,18,-99.99,,,0.01,Acu-Link.com,2013-04-18 02:30:00,
2013-04-17 20:45:00,60.8,18.3,29.84,North,0,12.5,-999.0,19,-99.99,,,0.01,Acu-Link.com,2013-04-18 02:45:00,
2013-04-17 21:00:00,60.1,17.7,29.86,North,0,6.8,-999.0,19,-99.99,,,0.01,Acu-Link.com,2013-04-18 03:00:00,
2013-04-17 21:15:00,59.2,18.2,29.87,NNW,337,13.0,-999.0,20,-99.99,,,0.01,Acu-Link.com,2013-04-18 03:15:00,
2013-04-17 21:30:00,58.5,17.6,29.88,North,0,9.9,-999.0,20,-99.99,,,0.01,Acu-Link.com,2013-04-18 03:30:00,
2013-04-17 21:45:00,57.6,18.0,29.89,NNW,337,7.3,-999.0,21,-99.99,,,0.01,Acu-Link.com,2013-04-18 03:45:00,
2013-04-17 22:01:00,57.0,17.5,29.90,West,270,12.5,-999.0,21,-99.99,,,0.01,Acu-Link.com,2013-04-18 04:01:00,
2013-04-17 22:16:00,56.5,17.1,29.92,NNW,337,6.8,-999.0,21,-99.99,,,0.01,Acu-Link.com,2013-04-18 04:16:00,
2013-04-17 22:31:00,56.3,16.9,29.93,NNW,337,5.3,-999.0,21,-99.99,,,0.01,Acu-Link.com,2013-04-18 04:31:00,
2013-04-17 23:31:00,55.2,16.0,29.94,WNW,292,9.9,-999.0,21,-99.99,,,0.01,Acu-Link.com,2013-04-18 05:31:00,
2013-04-17 23:46:00,55.0,15.8,29.94,North,0,9.4,-999.0,21,-99.99,,,0.01,Acu-Link.com,2013-04-18 05:46:00,